Saddle Brook, New Jersey
Current Conditions -  °F | °C
As of 10:51 AM on Sunday 21 Dec 2014 (Local Time) from KTEB Reporting Station
Overcast Overcast  
Wind Chill: 28°   Ceiling: 1600
Heat Index: 33°   Visibility: 10mi
Dew Point: 25°   Wind: 6mph
Humidity: 72%   Direction: 330°NNW
Pressure: 30.32"   Gusts: NA
Location:  40.9°N, 74.08°W
Report Text: KTEB 211551Z 33005KT 10SM OVC016 01/M04 A3032 RMK AO2 SLP266 T00061039
Loading
Personal Weather Stations






























Interactive Weather Map New forecast layout! Learn more

10-Day Weather Forecast

Advertisements
Track Severe Weather on mobile